Time;durP1;ratioP1;P1;durP2;ratioP2;P2;SDS_P1;SDS_P2;PMS_P1;PMS_P2;Temp;Humidity;BMP_temperature;BMP_pressure;BME280_temperature;BME280_humidity;BME280_pressure;Samples;Min_cycle;Max_cycle;Signal;HPM_P1;HPM_P2
2022/04/24 00:01:38;;;;;;;;;;;;;;;8.36;85.68;93767.39;1702713;83;20138;-47
2022/04/24 00:04:04;;;;;;;;;;;;;;;8.41;86.04;93765.41;1686079;82;20156;-48
2022/04/24 00:06:34;;;;;;;;;;;;;;;8.47;85.81;93755.34;1700378;83;20154;-49
2022/04/24 00:09:02;;;;;;;;;;;;;;;8.50;85.48;93757.79;1670077;83;20166;-48
2022/04/24 00:11:30;;;;;;;;;;;;;;;8.53;85.76;93760.39;1697085;83;20207;-47
2022/04/24 00:13:58;;;;;;;;;;;;;;;8.52;85.28;93761.61;1679684;83;21164;-48
2022/04/24 00:16:24;;;;;;;;;;;;;;;8.46;85.21;93760.67;1712177;83;20138;-48
2022/04/24 00:18:52;;;;;;;;;;;;;;;8.44;85.42;93757.63;1693284;82;20436;-47
2022/04/24 00:21:19;;;;;;;;;;;;;;;8.42;85.12;93764.19;1691952;83;20150;-48
2022/04/24 00:23:46;;;;;;;;;;;;;;;8.39;85.07;93761.59;1705686;82;20227;-48
2022/04/24 00:26:14;;;;;;;;;;;;;;;8.39;85.13;93771.17;1708466;83;20469;-46
2022/04/24 00:28:41;;;;;;;;;;;;;;;8.39;85.29;93771.95;1681156;83;20168;-47
2022/04/24 00:31:08;;;;;;;;;;;;;;;8.44;85.23;93769.97;1690657;83;20165;-47
2022/04/24 00:33:34;;;;;;;;;;;;;;;8.44;85.13;93776.08;1696741;82;20436;-47
2022/04/24 00:36:01;;;;;;;;;;;;;;;8.41;85.09;93766.77;1654315;83;20152;-47
2022/04/24 00:38:32;;;;;;;;;;;;;;;8.37;85.38;93774.39;1699101;83;20151;-47
2022/04/24 00:40:58;;;;;;;;;;;;;;;8.36;85.46;93772.88;1710925;82;20138;-47
2022/04/24 00:43:26;;;;;;;;;;;;;;;8.39;85.82;93769.81;1685159;82;20436;-46
2022/04/24 00:46:13;;;;;;;;;;;;;;;8.44;85.63;93773.33;1686759;82;20140;-47
2022/04/24 00:48:42;;;;;;;;;;;;;;;8.50;85.92;93768.75;1683609;83;20441;-47
2022/04/24 00:51:11;;;;;;;;;;;;;;;8.58;85.86;93778.95;1707223;82;20479;-47
2022/04/24 00:53:37;;;;;;;;;;;;;;;8.59;85.36;93780.48;1682894;83;20189;-53
2022/04/24 00:56:05;;;;;;;;;;;;;;;8.57;85.34;93777.44;1684277;83;20152;-49
2022/04/24 00:58:32;;;;;;;;;;;;;;;8.51;85.02;93775.16;1692414;82;20160;-47
2022/04/24 01:01:00;;;;;;;;;;;;;;;8.42;84.88;93771.03;1701424;83;20181;-47
2022/04/24 01:03:27;;;;;;;;;;;;;;;8.40;84.96;93777.59;1703780;82;21315;-47
2022/04/24 01:05:55;;;;;;;;;;;;;;;8.37;85.16;93772.25;1692410;83;20134;-48
2022/04/24 01:08:23;;;;;;;;;;;;;;;8.34;85.39;93769.83;1702705;83;20493;-48
2022/04/24 01:10:50;;;;;;;;;;;;;;;8.33;85.63;93771.05;1704102;82;20474;-48
2022/04/24 01:13:18;;;;;;;;;;;;;;;8.33;85.93;93770.27;1680232;84;20171;-47
2022/04/24 01:15:45;;;;;;;;;;;;;;;8.30;85.90;93773.33;1685137;84;21262;-48
2022/04/24 01:18:11;;;;;;;;;;;;;;;8.27;86.09;93767.38;1673089;82;20157;-48
2022/04/24 01:20:39;;;;;;;;;;;;;;;8.25;86.11;93765.70;1687221;82;20416;-48
2022/04/24 01:23:07;;;;;;;;;;;;;;;8.24;86.10;93781.98;1694463;83;20144;-48
2022/04/24 01:25:33;;;;;;;;;;;;;;;8.22;86.36;93783.05;1698713;84;20174;-47
2022/04/24 01:28:09;;;;;;;;;;;;;;;8.25;86.94;93786.25;1705787;82;20454;-47
2022/04/24 01:30:37;;;;;;;;;;;;;;;8.30;86.99;93780.19;1690351;82;20158;-49
2022/04/24 01:33:06;;;;;;;;;;;;;;;8.26;86.75;93776.81;1700130;82;20149;-47
2022/04/24 01:35:32;;;;;;;;;;;;;;;8.19;86.83;93770.27;1670483;83;20150;-49
2022/04/24 01:37:59;;;;;;;;;;;;;;;8.17;87.13;93776.01;1703300;83;20417;-49
2022/04/24 01:40:25;;;;;;;;;;;;;;;8.15;87.07;93777.84;1685451;83;21108;-48
2022/04/24 01:42:53;;;;;;;;;;;;;;;8.14;87.22;93777.70;1699297;82;20149;-47
2022/04/24 01:45:20;;;;;;;;;;;;;;;8.12;87.31;93774.66;1680063;83;20625;-48
2022/04/24 01:47:46;;;;;;;;;;;;;;;8.17;87.48;93769.94;1704628;82;20460;-48
2022/04/24 01:50:13;;;;;;;;;;;;;;;8.25;87.53;93781.39;1703244;83;20193;-47
2022/04/24 01:52:41;;;;;;;;;;;;;;;8.30;87.72;93774.70;1700188;82;20141;-47
2022/04/24 01:55:09;;;;;;;;;;;;;;;8.35;87.42;93779.57;1700928;82;20495;-48
2022/04/24 01:57:35;;;;;;;;;;;;;;;8.37;87.18;93777.13;1684772;84;20177;-48
2022/04/24 02:00:03;;;;;;;;;;;;;;;8.36;86.90;93783.83;1674866;83;20154;-47
2022/04/24 02:02:32;;;;;;;;;;;;;;;8.39;87.22;93780.77;1684328;82;20193;-47
2022/04/24 02:04:58;;;;;;;;;;;;;;;8.44;86.68;93782.92;1673259;82;21255;-47
2022/04/24 02:07:25;;;;;;;;;;;;;;;8.44;86.41;93782.92;1689081;83;20429;-46
2022/04/24 02:09:53;;;;;;;;;;;;;;;8.44;86.62;93785.04;1671730;82;20215;-48
2022/04/24 02:12:20;;;;;;;;;;;;;;;8.44;86.41;93789.15;1695645;82;20133;-47
2022/04/24 02:14:47;;;;;;;;;;;;;;;8.39;86.08;93795.84;1710191;83;20433;-47
2022/04/24 02:17:15;;;;;;;;;;;;;;;8.33;86.11;93803.93;1672832;83;21244;-47
2022/04/24 02:19:42;;;;;;;;;;;;;;;8.29;86.20;93801.17;1696830;83;20145;-47
2022/04/24 02:22:09;;;;;;;;;;;;;;;8.26;86.38;93802.84;1675181;84;20459;-48
2022/04/24 02:24:36;;;;;;;;;;;;;;;8.28;86.26;93799.66;1683027;83;20152;-46
2022/04/24 02:27:04;;;;;;;;;;;;;;;8.28;86.20;93800.40;1686493;83;20199;-48
2022/04/24 02:29:31;;;;;;;;;;;;;;;8.26;86.12;93795.24;1695618;82;20643;-48
2022/04/24 02:31:59;;;;;;;;;;;;;;;8.22;86.14;93802.23;1679135;83;20149;-48
2022/04/24 02:34:26;;;;;;;;;;;;;;;8.16;86.31;93797.17;1682992;83;20170;-48
2022/04/24 02:36:54;;;;;;;;;;;;;;;8.14;86.46;93797.47;1707764;82;20177;-48
2022/04/24 02:39:20;;;;;;;;;;;;;;;8.12;86.43;93808.89;1697113;83;20175;-48
2022/04/24 02:41:47;;;;;;;;;;;;;;;8.13;86.48;93805.53;1693881;82;21189;-48
2022/04/24 02:44:15;;;;;;;;;;;;;;;8.13;86.34;93802.80;1688158;82;20494;-47
2022/04/24 02:46:42;;;;;;;;;;;;;;;8.06;86.08;93798.36;1703452;82;20150;-48
2022/04/24 02:49:08;;;;;;;;;;;;;;;7.96;86.17;93802.31;1665576;83;20172;-48
2022/04/24 02:51:36;;;;;;;;;;;;;;;7.90;86.11;93810.95;1701149;82;20157;-47
2022/04/24 02:54:04;;;;;;;;;;;;;;;7.80;86.12;93805.90;1698468;83;39059;-47
2022/04/24 02:56:31;;;;;;;;;;;;;;;7.70;86.44;93809.22;1699536;83;20445;-47
2022/04/24 02:58:59;;;;;;;;;;;;;;;7.65;86.55;93816.66;1684876;82;20479;-48
2022/04/24 03:01:27;;;;;;;;;;;;;;;7.59;86.54;93819.84;1696907;83;20137;-47
2022/04/24 03:03:54;;;;;;;;;;;;;;;7.53;86.71;93809.30;1684805;82;20483;-49
2022/04/24 03:06:22;;;;;;;;;;;;;;;7.45;86.79;93820.37;1654909;83;20179;-48
2022/04/24 03:08:50;;;;;;;;;;;;;;;7.38;86.88;93826.09;1681519;82;20130;-48
2022/04/24 03:11:16;;;;;;;;;;;;;;;7.30;86.96;93829.58;1683285;83;20152;-48
2022/04/24 03:13:43;;;;;;;;;;;;;;;7.24;86.71;93838.19;1681001;82;20196;-50
2022/04/24 03:16:11;;;;;;;;;;;;;;;7.15;86.54;93832.06;1700405;82;20499;-48
2022/04/24 03:18:37;;;;;;;;;;;;;;;7.12;86.68;93839.80;1701609;83;21226;-48
2022/04/24 03:21:04;;;;;;;;;;;;;;;7.06;86.61;93835.96;1703213;83;20149;-49
2022/04/24 03:23:32;;;;;;;;;;;;;;;7.00;86.67;93834.99;1682390;83;20161;-48
2022/04/24 03:26:00;;;;;;;;;;;;;;;6.92;86.74;93845.42;1695542;83;20161;-47
2022/04/24 03:28:28;;;;;;;;;;;;;;;6.83;86.93;93841.27;1690664;83;20133;-48
2022/04/24 03:30:55;;;;;;;;;;;;;;;6.78;87.07;93845.95;1693472;82;21256;-48
2022/04/24 03:33:23;;;;;;;;;;;;;;;6.74;86.91;93840.44;1675215;83;20144;-48
2022/04/24 03:35:49;;;;;;;;;;;;;;;6.69;86.88;93845.12;1694642;83;20206;-48
2022/04/24 03:38:15;;;;;;;;;;;;;;;6.62;86.91;93847.48;1702166;83;20143;-49
2022/04/24 03:40:42;;;;;;;;;;;;;;;6.58;86.82;93850.17;1695563;83;20145;-49
2022/04/24 03:43:10;;;;;;;;;;;;;;;6.51;86.75;93859.38;1695895;83;20563;-48
2022/04/24 03:45:36;;;;;;;;;;;;;;;6.45;86.57;93857.64;1704055;82;20133;-47
2022/04/24 03:48:04;;;;;;;;;;;;;;;6.39;86.42;93858.05;1689899;82;20488;-49
2022/04/24 03:50:31;;;;;;;;;;;;;;;6.35;86.33;93863.63;1688973;82;20170;-47
2022/04/24 03:52:57;;;;;;;;;;;;;;;6.29;86.09;93870.09;1672190;83;20470;-47
2022/04/24 03:55:24;;;;;;;;;;;;;;;6.21;86.22;93872.90;1688971;83;22159;-48
2022/04/24 03:57:50;;;;;;;;;;;;;;;6.17;86.30;93879.09;1689482;82;20141;-48
2022/04/24 04:00:18;;;;;;;;;;;;;;;6.11;86.30;93878.88;1684274;82;20161;-48
2022/04/24 04:02:48;;;;;;;;;;;;;;;6.06;86.27;93875.92;1681857;83;20447;-48
2022/04/24 04:05:18;;;;;;;;;;;;;;;6.03;86.43;93880.91;1695602;83;20230;-49
2022/04/24 04:07:45;;;;;;;;;;;;;;;6.01;86.59;93879.97;1696782;82;21269;-48
2022/04/24 04:10:13;;;;;;;;;;;;;;;5.98;86.63;93877.37;1672418;83;20149;-48
2022/04/24 04:12:40;;;;;;;;;;;;;;;5.94;86.72;93878.09;1678096;82;20441;-48
2022/04/24 04:15:08;;;;;;;;;;;;;;;5.94;87.11;93876.72;1696497;83;20474;-48
2022/04/24 04:17:35;;;;;;;;;;;;;;;5.93;86.89;93882.02;1703402;82;20145;-48
2022/04/24 04:20:01;;;;;;;;;;;;;;;5.88;86.81;93878.45;1710426;84;21336;-48
2022/04/24 04:22:28;;;;;;;;;;;;;;;5.87;86.78;93874.20;1696435;83;20166;-49
2022/04/24 04:24:56;;;;;;;;;;;;;;;5.87;86.79;93869.52;1661231;82;20152;-47
2022/04/24 04:27:26;;;;;;;;;;;;;;;5.87;86.74;93873.61;1689802;82;20445;-48
2022/04/24 04:29:53;;;;;;;;;;;;;;;5.88;86.67;93871.63;1690712;83;20150;-48
2022/04/24 04:32:20;;;;;;;;;;;;;;;5.87;86.63;93870.11;1682440;84;21279;-49
2022/04/24 04:34:48;;;;;;;;;;;;;;;5.84;86.59;93875.86;1674893;83;20149;-48
2022/04/24 04:37:14;;;;;;;;;;;;;;;5.77;86.53;93869.20;1695447;83;20188;-48
2022/04/24 04:39:42;;;;;;;;;;;;;;;5.72;86.55;93875.80;1678699;83;20150;-47
2022/04/24 04:42:10;;;;;;;;;;;;;;;5.72;86.87;93873.86;1691475;83;20166;-49
2022/04/24 04:44:38;;;;;;;;;;;;;;;5.84;87.23;93871.77;1688199;83;21281;-49
2022/04/24 04:47:05;;;;;;;;;;;;;;;5.99;87.40;93863.88;1693884;83;20215;-49
2022/04/24 04:49:33;;;;;;;;;;;;;;;6.16;87.65;93865.27;1700514;83;20167;-50
2022/04/24 04:52:00;;;;;;;;;;;;;;;6.34;87.49;93862.10;1678954;83;20164;-48
2022/04/24 04:54:26;;;;;;;;;;;;;;;6.50;87.26;93863.94;1678246;82;20154;-48
2022/04/24 04:56:53;;;;;;;;;;;;;;;6.62;86.63;93869.94;1708852;84;21228;-47
2022/04/24 04:59:20;;;;;;;;;;;;;;;6.70;86.13;93869.25;1710658;84;20167;-48
2022/04/24 05:01:46;;;;;;;;;;;;;;;6.82;85.79;93867.67;1675291;82;20170;-48
2022/04/24 05:04:14;;;;;;;;;;;;;;;6.88;85.41;93866.66;1652875;85;20169;-48
2022/04/24 05:06:41;;;;;;;;;;;;;;;6.98;85.45;93868.27;1679290;83;20142;-47
2022/04/24 05:09:07;;;;;;;;;;;;;;;7.08;85.44;93869.25;1691923;82;21146;-48
2022/04/24 05:11:39;;;;;;;;;;;;;;;7.19;84.86;93863.39;1671323;83;20133;-48
2022/04/24 05:14:04;;;;;;;;;;;;;;;7.23;84.25;93864.80;1686016;83;20145;-49
2022/04/24 05:16:31;;;;;;;;;;;;;;;7.29;83.86;93868.47;1687849;82;20700;-48
2022/04/24 05:18:59;;;;;;;;;;;;;;;7.35;83.71;93868.66;1684680;83;20165;-48
2022/04/24 05:21:27;;;;;;;;;;;;;;;7.38;83.43;93871.23;1707729;83;21313;-48
2022/04/24 05:23:55;;;;;;;;;;;;;;;7.41;83.34;93870.38;1700036;83;20169;-48
2022/04/24 05:26:21;;;;;;;;;;;;;;;7.50;83.21;93864.93;1682177;83;20149;-48
2022/04/24 05:28:48;;;;;;;;;;;;;;;7.61;83.14;93863.94;1679547;82;20169;-48
2022/04/24 05:31:16;;;;;;;;;;;;;;;7.72;82.81;93859.42;1678259;83;20835;-48
2022/04/24 05:33:44;;;;;;;;;;;;;;;7.82;82.46;93869.95;1709091;83;21255;-48
2022/04/24 05:36:10;;;;;;;;;;;;;;;7.90;81.86;93870.44;1683287;82;20136;-47
2022/04/24 05:38:37;;;;;;;;;;;;;;;7.97;81.64;93864.08;1681251;82;20152;-47
2022/04/24 05:41:05;;;;;;;;;;;;;;;8.08;81.44;93861.66;1690207;82;20444;-47
2022/04/24 05:43:31;;;;;;;;;;;;;;;8.19;81.13;93864.00;1691086;82;20173;-47
2022/04/24 05:45:58;;;;;;;;;;;;;;;8.28;80.60;93854.45;1677512;82;21164;-48
2022/04/24 05:48:26;;;;;;;;;;;;;;;8.35;80.31;93861.78;1692208;83;20141;-48
2022/04/24 05:50:53;;;;;;;;;;;;;;;8.49;80.29;93858.45;1700885;83;20153;-49
2022/04/24 05:53:20;;;;;;;;;;;;;;;8.65;80.18;93861.52;1685824;84;20164;-51
2022/04/24 05:55:47;;;;;;;;;;;;;;;8.75;79.25;93861.05;1677417;83;20420;-48
2022/04/24 05:58:15;;;;;;;;;;;;;;;8.81;78.80;93864.70;1686514;82;21144;-50
2022/04/24 06:00:42;;;;;;;;;;;;;;;8.88;78.53;93863.05;1685993;83;20183;-48
2022/04/24 06:03:10;;;;;;;;;;;;;;;8.99;78.20;93856.47;1678301;83;20160;-48
2022/04/24 06:05:37;;;;;;;;;;;;;;;9.13;77.52;93862.72;1710855;83;20169;-48
2022/04/24 06:08:04;;;;;;;;;;;;;;;9.17;76.92;93859.98;1686333;83;20140;-47
2022/04/24 06:10:32;;;;;;;;;;;;;;;9.26;76.90;93861.33;1713660;82;20153;-47
2022/04/24 06:13:00;;;;;;;;;;;;;;;9.34;76.56;93866.67;1679299;83;20412;-47
2022/04/24 06:15:27;;;;;;;;;;;;;;;9.46;76.30;93871.83;1687067;82;20141;-49
2022/04/24 06:17:58;;;;;;;;;;;;;;;9.59;75.81;93879.28;1703321;82;20157;-48
2022/04/24 06:20:26;;;;;;;;;;;;;;;9.70;74.96;93879.54;1662126;84;20147;-48
2022/04/24 06:22:57;;;;;;;;;;;;;;;9.78;74.71;93875.26;1686776;84;20149;-48
2022/04/24 06:25:31;;;;;;;;;;;;;;;9.87;74.51;93871.87;1689820;83;20205;-49
2022/04/24 06:27:59;;;;;;;;;;;;;;;10.02;73.94;93882.35;1708194;83;20165;-47
2022/04/24 06:30:28;;;;;;;;;;;;;;;10.14;73.52;93882.02;1706094;82;20138;-49
2022/04/24 06:32:57;;;;;;;;;;;;;;;10.18;72.91;93877.11;1696338;83;20165;-48
2022/04/24 06:35:24;;;;;;;;;;;;;;;10.22;72.78;93881.22;1702081;83;20579;-47
2022/04/24 06:37:55;;;;;;;;;;;;;;;10.28;72.52;93876.60;1687824;82;20172;-48
2022/04/24 06:40:24;;;;;;;;;;;;;;;10.42;72.41;93869.64;1711902;82;20157;-48
2022/04/24 06:42:57;;;;;;;;;;;;;;;10.61;72.02;93868.31;1686417;83;20142;-48
2022/04/24 06:45:29;;;;;;;;;;;;;;;10.77;72.52;93873.55;1686153;82;20157;-52
2022/04/24 06:48:00;;;;;;;;;;;;;;;10.96;71.84;93870.81;1699813;82;20136;-49
2022/04/24 06:50:28;;;;;;;;;;;;;;;11.12;70.40;93868.23;1703371;82;20141;-47
2022/04/24 06:53:01;;;;;;;;;;;;;;;11.27;70.40;93866.27;1692932;82;20145;-47
2022/04/24 06:55:28;;;;;;;;;;;;;;;11.42;69.25;93873.34;1668538;83;20729;-48
2022/04/24 06:57:57;;;;;;;;;;;;;;;11.53;69.41;93868.64;1679287;82;20208;-48
2022/04/24 07:00:24;;;;;;;;;;;;;;;11.70;69.25;93869.73;1682228;82;21150;-48
2022/04/24 07:02:52;;;;;;;;;;;;;;;11.86;68.00;93866.49;1681680;83;20169;-50
2022/04/24 07:05:23;;;;;;;;;;;;;;;11.96;67.25;93865.91;1678129;83;20150;-48
2022/04/24 07:07:51;;;;;;;;;;;;;;;12.06;67.46;93863.17;1697868;83;20543;-49
2022/04/24 07:10:18;;;;;;;;;;;;;;;12.21;66.63;93859.78;1703555;83;20148;-48
2022/04/24 07:12:51;;;;;;;;;;;;;;;12.25;65.37;93865.85;1699180;82;20593;-49
2022/04/24 07:15:19;;;;;;;;;;;;;;;12.25;64.31;93862.34;1663064;84;20170;-49
2022/04/24 07:17:46;;;;;;;;;;;;;;;12.32;63.29;93864.09;1689533;83;20193;-48
2022/04/24 07:20:15;;;;;;;;;;;;;;;12.47;62.69;93864.80;1709829;83;20148;-49
2022/04/24 07:22:51;;;;;;;;;;;;;;;12.61;62.75;93873.65;1672978;85;20168;-50
2022/04/24 07:25:20;;;;;;;;;;;;;;;12.72;61.86;93867.66;1692907;83;21265;-48
2022/04/24 07:27:47;;;;;;;;;;;;;;;12.81;61.23;93861.25;1696551;83;20417;-49
2022/04/24 07:30:15;;;;;;;;;;;;;;;12.88;60.98;93853.31;1697275;83;20455;-49
2022/04/24 07:32:47;;;;;;;;;;;;;;;12.95;60.18;93848.03;1688638;82;20142;-49
2022/04/24 07:35:17;;;;;;;;;;;;;;;13.05;60.21;93846.03;1699262;83;20138;-49
2022/04/24 07:37:44;;;;;;;;;;;;;;;13.15;59.19;93835.59;1676869;83;21274;-48
2022/04/24 07:40:13;;;;;;;;;;;;;;;13.22;59.23;93835.16;1672307;83;20456;-50
2022/04/24 07:43:02;;;;;;;;;;;;;;;13.40;59.86;93844.52;1702709;83;20170;-48
2022/04/24 07:45:34;;;;;;;;;;;;;;;13.54;59.27;93845.05;1688741;82;21845;-50
2022/04/24 07:48:01;;;;;;;;;;;;;;;13.75;59.16;93844.52;1704063;82;20217;-49
2022/04/24 07:50:32;;;;;;;;;;;;;;;13.92;57.75;93847.41;1664095;83;20144;-48
2022/04/24 07:52:58;;;;;;;;;;;;;;;14.12;58.25;93855.02;1682643;83;20179;-48
2022/04/24 07:55:26;;;;;;;;;;;;;;;14.35;57.46;93845.65;1656044;84;20177;-48
2022/04/24 07:57:55;;;;;;;;;;;;;;;14.55;57.70;93840.77;1694670;83;20381;-50
2022/04/24 08:00:25;;;;;;;;;;;;;;;14.72;56.92;93837.47;1684218;82;20201;-49
2022/04/24 08:03:09;;;;;;;;;;;;;;;14.87;56.40;93836.67;1699450;82;20138;-49
2022/04/24 08:05:42;;;;;;;;;;;;;;;15.08;56.67;93833.86;1697971;82;20439;-49
2022/04/24 08:08:15;;;;;;;;;;;;;;;15.37;55.35;93832.09;1683953;82;20446;-52
2022/04/24 08:10:45;;;;;;;;;;;;;;;15.57;53.55;93834.66;1697915;83;20225;-49
2022/04/24 08:13:12;;;;;;;;;;;;;;;15.73;53.96;93831.16;1684744;83;20169;-50
2022/04/24 08:15:40;;;;;;;;;;;;;;;16.00;53.98;93828.30;1690260;82;21200;-49
2022/04/24 08:18:08;;;;;;;;;;;;;;;16.07;51.16;93821.61;1672021;82;20137;-47
2022/04/24 08:20:36;;;;;;;;;;;;;;;16.02;52.03;93804.95;1652770;85;20149;-50
2022/04/24 08:23:03;;;;;;;;;;;;;;;16.20;52.83;93808.00;1680758;84;20439;-48
2022/04/24 08:25:34;;;;;;;;;;;;;;;16.50;53.23;93804.81;1678177;82;20176;-47
2022/04/24 08:28:00;;;;;;;;;;;;;;;16.73;53.82;93803.53;1697580;83;22208;-49
2022/04/24 08:30:27;;;;;;;;;;;;;;;16.87;50.92;93814.34;1692189;83;20257;-48
2022/04/24 08:32:54;;;;;;;;;;;;;;;16.96;50.66;93825.19;1682906;84;20184;-49
2022/04/24 08:35:20;;;;;;;;;;;;;;;17.09;48.70;93821.20;1703989;82;20180;-50
2022/04/24 08:37:48;;;;;;;;;;;;;;;17.13;48.59;93818.16;1707167;83;20149;-50
2022/04/24 08:40:17;;;;;;;;;;;;;;;17.29;49.57;93809.00;1696781;83;20447;-51
2022/04/24 08:42:44;;;;;;;;;;;;;;;17.62;49.60;93808.21;1690648;83;20259;-48
2022/04/24 08:45:12;;;;;;;;;;;;;;;17.91;48.15;93808.92;1678668;83;20145;-50
2022/04/24 08:47:42;;;;;;;;;;;;;;;18.09;46.41;93804.73;1689247;82;20156;-50
2022/04/24 08:50:09;;;;;;;;;;;;;;;18.14;45.70;93804.69;1683748;83;20188;-49
2022/04/24 08:52:36;;;;;;;;;;;;;;;18.18;45.41;93804.53;1685659;82;21272;-48
2022/04/24 08:55:04;;;;;;;;;;;;;;;18.24;45.61;93798.92;1679293;83;20453;-50
2022/04/24 08:57:30;;;;;;;;;;;;;;;18.37;44.24;93795.66;1684994;82;20144;-49
2022/04/24 08:59:58;;;;;;;;;;;;;;;18.40;44.16;93793.23;1701440;83;20174;-49
2022/04/24 09:02:25;;;;;;;;;;;;;;;18.33;43.58;93791.02;1698048;83;20417;-49
2022/04/24 09:04:53;;;;;;;;;;;;;;;18.31;43.41;93790.77;1682883;83;22013;-48
2022/04/24 09:07:20;;;;;;;;;;;;;;;18.43;43.22;93797.75;1697458;83;20443;-48
2022/04/24 09:09:49;;;;;;;;;;;;;;;18.55;42.90;93804.73;1696881;82;20153;-49
2022/04/24 09:12:28;;;;;;;;;;;;;;;18.59;42.29;93803.81;1687948;82;20449;-49
2022/04/24 09:14:57;;;;;;;;;;;;;;;18.55;42.40;93801.95;1682015;83;20304;-49
2022/04/24 09:17:25;;;;;;;;;;;;;;;18.49;43.16;93790.09;1698999;82;21324;-48
2022/04/24 09:19:53;;;;;;;;;;;;;;;18.59;43.63;93784.31;1678506;82;20167;-50
2022/04/24 09:22:24;;;;;;;;;;;;;;;18.69;42.34;93791.06;1693826;82;20145;-49
2022/04/24 09:24:59;;;;;;;;;;;;;;;18.69;42.48;93789.66;1703932;83;20134;-50
2022/04/24 09:27:34;;;;;;;;;;;;;;;18.79;42.03;93792.86;1694555;83;20182;-49
2022/04/24 09:30:12;;;;;;;;;;;;;;;18.88;41.40;93798.06;1693212;82;21158;-49
2022/04/24 09:32:53;;;;;;;;;;;;;;;18.91;42.16;93793.61;1694404;82;20144;-50
2022/04/24 09:35:25;;;;;;;;;;;;;;;18.94;41.99;93791.16;1702273;82;20134;-49
2022/04/24 09:38:13;;;;;;;;;;;;;;;18.95;41.68;93789.11;1692721;83;20191;-50
2022/04/24 09:40:45;;;;;;;;;;;;;;;18.95;42.29;93789.87;1684680;84;20169;-49
2022/04/24 09:43:13;;;;;;;;;;;;;;;19.05;41.40;93791.02;1698335;83;21141;-53
2022/04/24 09:45:41;;;;;;;;;;;;;;;19.13;41.70;93786.38;1678043;82;20177;-50
2022/04/24 09:48:18;;;;;;;;;;;;;;;19.27;41.44;93797.00;1680763;83;20138;-49
2022/04/24 09:50:44;;;;;;;;;;;;;;;19.38;41.42;93796.87;1703292;83;20180;-48
2022/04/24 09:53:14;;;;;;;;;;;;;;;19.47;41.46;93799.28;1699474;82;20469;-49
2022/04/24 09:55:43;;;;;;;;;;;;;;;19.50;40.59;93792.64;1696869;83;21272;-49
2022/04/24 09:58:13;;;;;;;;;;;;;;;19.33;40.60;93784.50;1690346;83;20185;-49
2022/04/24 10:00:44;;;;;;;;;;;;;;;19.22;41.02;93780.45;1672189;82;20145;-51
2022/04/24 10:03:16;;;;;;;;;;;;;;;19.23;40.69;93786.14;1690364;84;20130;-50
2022/04/24 10:05:47;;;;;;;;;;;;;;;19.17;40.25;93767.33;1710823;84;20441;-49
2022/04/24 10:08:15;;;;;;;;;;;;;;;19.09;40.28;93762.84;1694209;82;21072;-49
2022/04/24 10:10:43;;;;;;;;;;;;;;;18.99;41.21;93756.88;1695118;82;20134;-49
2022/04/24 10:13:12;;;;;;;;;;;;;;;19.17;41.02;93768.73;1704792;83;20165;-50
2022/04/24 10:15:46;;;;;;;;;;;;;;;19.54;39.97;93767.35;1675149;84;20144;-50
2022/04/24 10:18:42;;;;;;;;;;;;;;;19.77;39.72;93766.40;1670427;83;20184;-49
2022/04/24 10:21:31;;;;;;;;;;;;;;;19.82;39.54;93773.30;1695343;83;21229;-50
2022/04/24 10:24:11;;;;;;;;;;;;;;;19.96;39.19;93773.45;1688960;83;20156;-49
2022/04/24 10:26:38;;;;;;;;;;;;;;;20.21;39.85;93780.46;1685547;83;20150;-49
2022/04/24 10:29:08;;;;;;;;;;;;;;;20.32;41.37;93785.85;1680574;82;20173;-50
2022/04/24 10:31:45;;;;;;;;;;;;;;;20.43;40.42;93787.84;1685930;82;20150;-50
2022/04/24 10:34:14;;;;;;;;;;;;;;;20.48;39.11;93791.80;1676428;82;20141;-50
2022/04/24 10:36:58;;;;;;;;;;;;;;;20.33;38.98;93795.73;1688535;84;20154;-49
2022/04/24 10:39:28;;;;;;;;;;;;;;;20.24;38.87;93791.34;1689225;82;20162;-50
2022/04/24 10:42:00;;;;;;;;;;;;;;;20.10;39.22;93775.05;1696868;82;20156;-48
2022/04/24 10:44:27;;;;;;;;;;;;;;;20.11;40.25;93780.00;1678849;82;20176;-50
2022/04/24 10:46:57;;;;;;;;;;;;;;;20.14;39.59;93788.05;1679927;82;20152;-49
2022/04/24 10:49:27;;;;;;;;;;;;;;;20.10;39.91;93795.98;1677796;82;20148;-48
2022/04/24 10:51:59;;;;;;;;;;;;;;;20.31;39.93;93792.73;1659797;83;20149;-48
2022/04/24 10:54:36;;;;;;;;;;;;;;;20.28;39.48;93803.57;1690283;83;20133;-49
2022/04/24 10:57:18;;;;;;;;;;;;;;;20.06;40.00;93808.11;1708969;82;20208;-49
2022/04/24 10:59:55;;;;;;;;;;;;;;;19.76;40.83;93806.11;1688721;82;21255;-48
2022/04/24 11:02:26;;;;;;;;;;;;;;;19.43;40.95;93806.58;1676461;83;20156;-49
2022/04/24 11:05:06;;;;;;;;;;;;;;;19.07;41.66;93803.05;1698521;82;20141;-50
2022/04/24 11:07:34;;;;;;;;;;;;;;;18.78;42.55;93796.27;1688932;83;20189;-52
2022/04/24 11:10:06;;;;;;;;;;;;;;;18.60;43.19;93796.19;1684879;82;20160;-49
2022/04/24 11:12:34;;;;;;;;;;;;;;;18.51;43.47;93792.37;1689942;82;20141;-49
2022/04/24 11:15:05;;;;;;;;;;;;;;;18.42;43.61;93796.25;1697162;82;20231;-50
2022/04/24 11:17:31;;;;;;;;;;;;;;;18.39;43.87;93802.86;1672845;83;20172;-50
2022/04/24 11:20:03;;;;;;;;;;;;;;;18.25;43.66;93810.18;1682753;82;20140;-49
2022/04/24 11:22:31;;;;;;;;;;;;;;;18.06;44.36;93812.11;1699434;83;20140;-49
2022/04/24 11:25:00;;;;;;;;;;;;;;;17.83;44.48;93807.95;1691284;83;20161;-50
2022/04/24 11:27:27;;;;;;;;;;;;;;;17.63;45.26;93808.98;1663556;84;20169;-50
2022/04/24 11:29:53;;;;;;;;;;;;;;;17.44;45.57;93805.30;1701166;83;20162;-51
2022/04/24 11:32:20;;;;;;;;;;;;;;;17.35;46.28;93807.73;1698003;83;20150;-50
2022/04/24 11:34:47;;;;;;;;;;;;;;;17.35;46.38;93800.79;1709690;83;20145;-50
2022/04/24 11:37:14;;;;;;;;;;;;;;;17.42;46.48;93800.89;1689390;83;21252;-50
2022/04/24 11:39:42;;;;;;;;;;;;;;;17.55;46.27;93803.83;1707376;82;20425;-49
2022/04/24 11:42:09;;;;;;;;;;;;;;;17.68;45.80;93804.75;1693494;83;20152;-48
2022/04/24 11:50:15;;;;;;;;;;;;;;;18.97;44.45;93772.64;1698264;84;20144;-49
2022/04/24 11:52:44;;;;;;;;;;;;;;;19.90;42.65;93782.56;1715016;83;20157;-48
2022/04/24 11:55:14;;;;;;;;;;;;;;;20.64;40.66;93782.38;1703071;83;20133;-50
2022/04/24 11:57:42;;;;;;;;;;;;;;;21.17;39.53;93779.76;1669291;83;20446;-51
2022/04/24 12:00:12;;;;;;;;;;;;;;;21.53;38.11;93773.80;1698818;83;20156;-49
2022/04/24 12:02:39;;;;;;;;;;;;;;;21.82;37.77;93780.43;1698371;82;21181;-50
2022/04/24 12:05:12;;;;;;;;;;;;;;;22.22;37.27;93781.79;1671421;84;20167;-50
2022/04/24 12:07:40;;;;;;;;;;;;;;;22.48;36.50;93783.84;1688641;82;20128;-49
2022/04/24 12:10:09;;;;;;;;;;;;;;;22.61;35.77;93777.41;1699407;83;20153;-49
2022/04/24 12:12:47;;;;;;;;;;;;;;;22.74;35.75;93773.89;1693072;83;20207;-50
2022/04/24 12:15:23;;;;;;;;;;;;;;;22.91;35.86;93771.41;1680932;83;20165;-49
2022/04/24 12:17:51;;;;;;;;;;;;;;;23.02;35.56;93765.48;1680136;83;20448;-49
2022/04/24 12:20:18;;;;;;;;;;;;;;;23.29;35.58;93765.41;1676490;82;20476;-49
2022/04/24 12:22:45;;;;;;;;;;;;;;;23.67;34.69;93769.14;1704238;83;20194;-49
2022/04/24 12:25:15;;;;;;;;;;;;;;;23.89;34.13;93768.50;1701834;82;20441;-49
2022/04/24 12:27:55;;;;;;;;;;;;;;;23.98;33.73;93778.46;1695017;84;21204;-50
2022/04/24 12:30:25;;;;;;;;;;;;;;;23.88;34.25;93768.41;1661920;83;20147;-47
2022/04/24 12:32:52;;;;;;;;;;;;;;;23.66;34.21;93770.45;1699906;83;20469;-48
2022/04/24 12:35:35;;;;;;;;;;;;;;;23.28;34.70;93756.89;1702921;83;20171;-47
2022/04/24 12:38:13;;;;;;;;;;;;;;;22.88;35.00;93760.52;1666685;82;20137;-48
2022/04/24 12:40:41;;;;;;;;;;;;;;;22.51;35.82;93761.72;1679910;82;20149;-49
2022/04/24 12:43:09;;;;;;;;;;;;;;;22.46;36.36;93765.42;1685051;83;20409;-49
2022/04/24 12:45:35;;;;;;;;;;;;;;;22.75;35.71;93766.98;1695350;83;20439;-48
2022/04/24 12:48:02;;;;;;;;;;;;;;;22.98;35.55;93753.86;1693462;83;20221;-49
2022/04/24 12:50:29;;;;;;;;;;;;;;;23.20;35.07;93753.27;1653601;83;20468;-49
2022/04/24 12:52:56;;;;;;;;;;;;;;;23.45;34.83;93750.78;1686653;82;22133;-50
2022/04/24 12:55:23;;;;;;;;;;;;;;;23.79;34.19;93755.52;1673475;82;20176;-51
2022/04/24 12:57:54;;;;;;;;;;;;;;;23.97;33.94;93750.27;1678146;84;20431;-49
2022/04/24 13:00:21;;;;;;;;;;;;;;;24.29;33.24;93749.22;1680769;82;20958;-49
2022/04/24 13:02:49;;;;;;;;;;;;;;;24.29;32.99;93755.48;1714539;82;20145;-49
2022/04/24 13:05:17;;;;;;;;;;;;;;;24.00;33.15;93758.34;1660927;82;21246;-49
2022/04/24 13:07:43;;;;;;;;;;;;;;;23.51;33.88;93764.77;1658530;83;20173;-49